Time;durP1;ratioP1;P1;durP2;ratioP2;P2;SDS_P1;SDS_P2;PMS_P1;PMS_P2;Temp;Humidity;BMP_temperature;BMP_pressure;BME280_temperature;BME280_humidity;BME280_pressure;Samples;Min_cycle;Max_cycle;Signal;HPM_P1;HPM_P2
2024/02/17 00:02:22;;;;;;;1.60;0.70;;;9.60;99.90;;;;;;5001059;28;20289;-89
2024/02/17 00:04:48;;;;;;;1.03;0.93;;;9.40;99.90;;;;;;4993507;28;20211;-89
2024/02/17 00:07:14;;;;;;;1.53;1.10;;;9.40;99.90;;;;;;4993572;28;20226;-89
2024/02/17 00:09:40;;;;;;;1.53;1.43;;;9.40;99.90;;;;;;5008661;28;20235;-89
2024/02/17 00:12:08;;;;;;;1.60;0.73;;;9.60;99.90;;;;;;4992688;28;20226;-89
2024/02/17 00:14:37;;;;;;;0.87;0.80;;;9.60;99.90;;;;;;4992139;28;20223;-89
2024/02/17 00:17:04;;;;;;;3.97;2.03;;;9.60;99.90;;;;;;5008615;28;20222;-89
2024/02/17 00:19:30;;;;;;;0.80;0.80;;;9.40;99.90;;;;;;5002922;28;20243;-88
2024/02/17 00:21:56;;;;;;;1.13;0.80;;;9.40;99.90;;;;;;4999052;28;20566;-89
2024/02/17 00:24:22;;;;;;;2.30;1.53;;;9.50;99.90;;;;;;5018648;28;20722;-89
2024/02/17 00:26:49;;;;;;;1.97;1.30;;;9.40;99.90;;;;;;5010178;28;20230;-89
2024/02/17 00:29:18;;;;;;;0.60;0.60;;;9.60;99.90;;;;;;5019087;28;20238;-89
2024/02/17 00:31:48;;;;;;;1.43;1.40;;;9.40;99.90;;;;;;4992918;28;20203;-89
2024/02/17 00:34:14;;;;;;;1.27;1.17;;;9.50;99.90;;;;;;5004100;28;20202;-89
2024/02/17 00:36:41;;;;;;;3.37;2.07;;;9.50;99.90;;;;;;5003063;28;20226;-89
2024/02/17 00:39:09;;;;;;;2.97;1.67;;;9.40;99.90;;;;;;5003040;28;20223;-89
2024/02/17 00:41:39;;;;;;;0.80;0.80;;;9.30;99.90;;;;;;5002003;28;20237;-89
2024/02/17 00:44:05;;;;;;;0.67;0.67;;;9.30;99.90;;;;;;5001091;28;20226;-89
2024/02/17 00:46:31;;;;;;;2.30;1.03;;;9.30;99.90;;;;;;5018423;28;20203;-88
2024/02/17 00:48:57;;;;;;;1.27;1.17;;;9.20;99.90;;;;;;5000536;28;20233;-89
2024/02/17 00:51:23;;;;;;;4.23;1.83;;;9.00;99.90;;;;;;5000651;28;20310;-89
2024/02/17 00:53:49;;;;;;;1.27;1.17;;;9.00;99.90;;;;;;5016353;28;20215;-89
2024/02/17 00:56:15;;;;;;;0.67;0.67;;;9.20;99.90;;;;;;5000043;28;20234;-89
2024/02/17 00:58:41;;;;;;;4.13;2.50;;;9.20;99.90;;;;;;4998976;28;20202;-89
2024/02/17 01:01:09;;;;;;;0.90;0.83;;;9.20;99.90;;;;;;5000430;28;20292;-89
2024/02/17 01:03:35;;;;;;;0.70;0.70;;;9.00;99.90;;;;;;5002003;28;20223;-89
2024/02/17 01:06:03;;;;;;;1.20;0.67;;;8.80;99.90;;;;;;5002109;28;20234;-89
2024/02/17 01:08:28;;;;;;;1.57;1.53;;;8.80;99.90;;;;;;5001173;28;20254;-89
2024/02/17 01:10:54;;;;;;;1.90;1.03;;;9.00;99.90;;;;;;5015970;28;20265;-89
2024/02/17 01:13:20;;;;;;;2.03;1.00;;;9.00;99.90;;;;;;5016924;28;20569;-90
2024/02/17 01:15:46;;;;;;;1.80;0.40;;;8.90;99.90;;;;;;4999035;28;20719;-89
2024/02/17 01:18:12;;;;;;;3.03;2.00;;;8.80;99.90;;;;;;4985803;28;20262;-89
2024/02/17 01:20:38;;;;;;;1.73;1.30;;;9.00;99.90;;;;;;5008067;28;20699;-89
2024/02/17 01:23:04;;;;;;;12.73;1.20;;;8.90;99.90;;;;;;4993755;28;20268;-89
2024/02/17 01:25:29;;;;;;;0.43;0.43;;;8.80;99.90;;;;;;5001829;28;20206;-89
2024/02/17 01:27:55;;;;;;;0.30;0.30;;;8.60;99.90;;;;;;5001674;28;20234;-89
2024/02/17 01:30:21;;;;;;;4.53;0.50;;;8.60;99.90;;;;;;5000214;28;20238;-88
2024/02/17 01:32:47;;;;;;;6.50;2.67;;;8.60;99.90;;;;;;4983712;28;20227;-89
2024/02/17 01:35:15;;;;;;;1.07;0.93;;;8.60;99.90;;;;;;5002371;28;20222;-89
2024/02/17 01:37:41;;;;;;;0.20;0.20;;;8.40;99.90;;;;;;5010342;28;20202;-89
2024/02/17 01:40:07;;;;;;;0.37;0.37;;;8.40;99.90;;;;;;5002216;28;20222;-89
2024/02/17 01:42:34;;;;;;;0.53;0.53;;;8.30;99.90;;;;;;5000169;28;20211;-89
2024/02/17 01:45:00;;;;;;;3.27;0.90;;;8.30;99.90;;;;;;4998767;28;20695;-88
2024/02/17 01:47:27;;;;;;;0.63;0.63;;;8.40;99.90;;;;;;4982268;28;20345;-89
2024/02/17 01:49:55;;;;;;;0.97;0.90;;;8.40;99.90;;;;;;5001320;28;20228;-88
2024/02/17 01:52:22;;;;;;;0.53;0.50;;;8.60;99.90;;;;;;5010388;28;20663;-89
2024/02/17 01:54:47;;;;;;;0.77;0.77;;;8.70;99.90;;;;;;5000392;28;20691;-89
2024/02/17 01:57:14;;;;;;;1.43;1.33;;;8.70;99.90;;;;;;5011733;28;20241;-89
2024/02/17 01:59:41;;;;;;;0.50;0.50;;;8.40;99.90;;;;;;4986551;28;20222;-88
2024/02/17 02:02:07;;;;;;;0.20;0.20;;;8.40;99.90;;;;;;5021872;28;20249;-89
2024/02/17 02:04:33;;;;;;;0.50;0.50;;;8.30;99.90;;;;;;5005821;28;20257;-88
2024/02/17 02:06:58;;;;;;;0.83;0.57;;;8.60;99.90;;;;;;5005132;28;20218;-89
2024/02/17 02:09:27;;;;;;;0.50;0.50;;;8.40;99.90;;;;;;5020948;28;20230;-89
2024/02/17 02:11:55;;;;;;;1.03;0.80;;;8.70;99.90;;;;;;5003862;28;20218;-89
2024/02/17 02:14:21;;;;;;;0.57;0.57;;;8.60;99.90;;;;;;5003419;28;20232;-89
2024/02/17 02:16:50;;;;;;;1.00;1.00;;;8.40;99.90;;;;;;5012747;28;20203;-89
2024/02/17 02:19:16;;;;;;;0.57;0.57;;;8.40;99.90;;;;;;4989673;28;20262;-89
2024/02/17 02:21:43;;;;;;;1.07;0.70;;;8.60;99.90;;;;;;5021716;28;20839;-89
2024/02/17 02:24:09;;;;;;;0.60;0.60;;;8.40;99.90;;;;;;5005151;28;20225;-89
2024/02/17 02:26:35;;;;;;;0.80;0.80;;;8.50;99.90;;;;;;5005863;28;20737;-89
2024/02/17 02:29:01;;;;;;;0.47;0.47;;;8.60;99.90;;;;;;5003357;28;20226;-89
2024/02/17 02:31:27;;;;;;;0.77;0.77;;;8.40;99.90;;;;;;5021141;28;20199;-89
2024/02/17 02:33:57;;;;;;;0.40;0.40;;;8.50;99.90;;;;;;5005452;28;20268;-89
2024/02/17 02:36:23;;;;;;;0.87;0.87;;;8.50;99.90;;;;;;5018852;28;20248;-89
2024/02/17 02:38:51;;;;;;;2.83;1.03;;;8.60;99.90;;;;;;5003950;28;20210;-89
2024/02/17 02:41:17;;;;;;;1.40;1.23;;;8.40;99.90;;;;;;5005919;28;20219;-89
2024/02/17 02:43:43;;;;;;;0.63;0.63;;;8.60;99.90;;;;;;5020688;28;20198;-89
2024/02/17 02:46:09;;;;;;;0.20;0.20;;;8.50;99.90;;;;;;5021917;28;20261;-89
2024/02/17 02:48:35;;;;;;;0.27;0.27;;;8.50;99.90;;;;;;5001558;28;21258;-89
2024/02/17 02:51:01;;;;;;;0.40;0.40;;;8.50;99.90;;;;;;5000815;28;20281;-89
2024/02/17 02:53:27;;;;;;;0.30;0.30;;;8.80;99.90;;;;;;5014207;28;20222;-89
2024/02/17 02:55:53;;;;;;;0.60;0.37;;;8.50;99.90;;;;;;5020294;28;20202;-89
2024/02/17 02:58:20;;;;;;;0.87;0.87;;;8.70;99.90;;;;;;5022024;28;20210;-89
2024/02/17 03:00:49;;;;;;;0.77;0.40;;;8.40;99.90;;;;;;5013037;28;20368;-89
2024/02/17 03:03:15;;;;;;;1.17;1.17;;;8.50;99.90;;;;;;4999785;28;20301;-89
2024/02/17 03:05:41;;;;;;;0.33;0.33;;;8.40;99.90;;;;;;5002824;28;20234;-89
2024/02/17 03:08:07;;;;;;;0.93;0.93;;;8.40;99.90;;;;;;5002563;28;20218;-89
2024/02/17 03:10:32;;;;;;;0.57;0.57;;;8.60;99.90;;;;;;4997195;28;20590;-89
2024/02/17 03:13:01;;;;;;;1.60;1.23;;;8.30;99.90;;;;;;5020616;28;20218;-89
2024/02/17 03:15:27;;;;;;;1.00;1.00;;;8.50;99.90;;;;;;5019825;28;20230;-89
2024/02/17 03:17:56;;;;;;;0.63;0.63;;;8.60;99.90;;;;;;5003434;28;20225;-89
2024/02/17 03:20:22;;;;;;;0.80;0.80;;;8.50;99.90;;;;;;5018948;28;20238;-89
2024/02/17 03:22:48;;;;;;;0.40;0.27;;;8.50;99.90;;;;;;5017637;28;20199;-89
2024/02/17 03:25:14;;;;;;;1.60;0.57;;;8.60;99.90;;;;;;5002986;28;20310;-89
2024/02/17 03:27:40;;;;;;;0.60;0.60;;;8.50;99.90;;;;;;5003205;28;20226;-89
2024/02/17 03:30:07;;;;;;;0.40;0.40;;;8.60;99.90;;;;;;5020019;28;20249;-89
2024/02/17 03:32:33;;;;;;;0.67;0.67;;;8.60;99.90;;;;;;4996484;28;20368;-89
2024/02/17 03:35:06;;;;;;;0.20;0.20;;;8.30;99.90;;;;;;5012769;28;20237;-89
2024/02/17 03:37:32;;;;;;;0.20;0.20;;;8.50;99.90;;;;;;5021273;28;20202;-89
2024/02/17 03:39:59;;;;;;;0.30;0.30;;;8.60;99.90;;;;;;5019293;28;20272;-89
2024/02/17 03:42:25;;;;;;;0.90;0.80;;;8.40;99.90;;;;;;5016277;28;20893;-89
2024/02/17 03:44:50;;;;;;;0.20;0.20;;;8.50;99.90;;;;;;4990901;28;20216;-89
2024/02/17 03:47:16;;;;;;;0.20;0.20;;;8.30;99.90;;;;;;4996688;28;20218;-89
2024/02/17 03:49:42;;;;;;;7.97;0.33;;;8.60;99.90;;;;;;4996722;28;20224;-89
2024/02/17 03:52:08;;;;;;;0.10;0.10;;;8.40;99.90;;;;;;4997310;28;20657;-89
2024/02/17 03:54:34;;;;;;;0.10;0.10;;;8.40;99.90;;;;;;4995640;28;20671;-89
2024/02/17 03:56:59;;;;;;;0.30;0.30;;;8.10;99.90;;;;;;5012558;28;20250;-89
2024/02/17 03:59:26;;;;;;;0.70;0.70;;;8.30;99.90;;;;;;4996935;28;20237;-89
2024/02/17 04:01:55;;;;;;;0.20;0.20;;;8.30;99.90;;;;;;5012218;28;20293;-89
2024/02/17 04:04:27;;;;;;;0.10;0.10;;;8.10;99.90;;;;;;5003885;28;20655;-89
2024/02/17 04:06:53;;;;;;;0.17;0.17;;;8.30;99.90;;;;;;5004347;28;20268;-89
2024/02/17 04:09:19;;;;;;;0.13;0.13;;;8.20;99.90;;;;;;5001561;28;20274;-89
2024/02/17 04:11:45;;;;;;;0.10;0.10;;;8.30;99.90;;;;;;5000996;28;20293;-89
2024/02/17 04:14:10;;;;;;;0.30;0.30;;;8.10;99.90;;;;;;5002025;28;20224;-89
2024/02/17 04:16:36;;;;;;;5.77;0.93;;;8.20;99.90;;;;;;5011047;28;20281;-89
2024/02/17 04:19:02;;;;;;;0.30;0.30;;;8.20;99.90;;;;;;5015681;28;20230;-89
2024/02/17 04:21:28;;;;;;;0.50;0.50;;;8.10;99.90;;;;;;5003397;28;20249;-90
2024/02/17 04:23:54;;;;;;;0.17;0.17;;;8.10;99.90;;;;;;4984337;28;20234;-89
2024/02/17 04:26:19;;;;;;;0.33;0.33;;;8.20;99.90;;;;;;4977477;28;20261;-89
2024/02/17 04:28:46;;;;;;;0.20;0.20;;;8.30;99.90;;;;;;4975476;28;20207;-89
2024/02/17 04:31:12;;;;;;;0.30;0.30;;;8.20;99.90;;;;;;4994852;28;20646;-90
2024/02/17 04:33:38;;;;;;;0.20;0.20;;;8.20;99.90;;;;;;5000743;28;20222;-89
2024/02/17 04:36:08;;;;;;;0.20;0.20;;;7.90;99.90;;;;;;5000828;28;20805;-89
2024/02/17 04:38:34;;;;;;;0.20;0.20;;;8.10;99.90;;;;;;5003029;28;20307;-89
2024/02/17 04:41:00;;;;;;;0.20;0.20;;;8.00;99.90;;;;;;5019798;28;20198;-89
2024/02/17 04:43:26;;;;;;;0.53;0.40;;;8.00;99.90;;;;;;5003332;28;20214;-89
2024/02/17 04:45:51;;;;;;;0.67;0.63;;;7.90;99.90;;;;;;5001516;28;20239;-89
2024/02/17 04:48:18;;;;;;;0.20;0.20;;;8.00;99.90;;;;;;4996410;28;20229;-90
2024/02/17 04:50:43;;;;;;;0.43;0.43;;;7.80;99.90;;;;;;4996541;28;20226;-89
2024/02/17 04:53:09;;;;;;;0.40;0.40;;;7.80;99.90;;;;;;5001025;28;20219;-89
2024/02/17 04:55:35;;;;;;;0.20;0.20;;;7.90;99.90;;;;;;5001340;28;20206;-89
2024/02/17 04:58:03;;;;;;;0.20;0.20;;;7.90;99.90;;;;;;4985031;28;21390;-89
2024/02/17 05:00:29;;;;;;;0.10;0.10;;;7.90;99.90;;;;;;4999648;28;20217;-89
2024/02/17 05:02:54;;;;;;;0.40;0.40;;;7.90;99.90;;;;;;5014683;28;20214;-89
2024/02/17 05:05:23;;;;;;;0.20;0.20;;;7.70;99.90;;;;;;5009630;28;20230;-89
2024/02/17 05:07:49;;;;;;;0.20;0.20;;;7.70;99.90;;;;;;5009336;28;20218;-89
2024/02/17 05:10:15;;;;;;;0.33;0.33;;;7.70;99.90;;;;;;4994013;28;20226;-89
2024/02/17 05:12:41;;;;;;;0.20;0.20;;;7.60;99.90;;;;;;4999225;28;20218;-89
2024/02/17 05:15:07;;;;;;;0.10;0.10;;;7.70;99.90;;;;;;5003603;28;20276;-90
2024/02/17 05:17:35;;;;;;;1.17;0.77;;;8.00;99.90;;;;;;5018284;28;20230;-90
2024/02/17 05:20:01;;;;;;;0.33;0.33;;;7.70;99.90;;;;;;4999732;28;20230;-89
2024/02/17 05:22:27;;;;;;;0.20;0.20;;;7.70;99.90;;;;;;5004604;28;20507;-89
2024/02/17 05:24:52;;;;;;;0.23;0.23;;;7.70;99.90;;;;;;4993277;28;20250;-90
2024/02/17 05:27:21;;;;;;;0.20;0.20;;;7.70;99.90;;;;;;4985376;28;20241;-89
2024/02/17 05:29:47;;;;;;;0.40;0.40;;;7.80;99.90;;;;;;5000756;28;20234;-90
2024/02/17 05:32:13;;;;;;;0.13;0.13;;;8.00;99.90;;;;;;5011606;28;20222;-90
2024/02/17 05:34:39;;;;;;;0.10;0.10;;;7.70;99.90;;;;;;5018337;28;20203;-89
2024/02/17 05:37:06;;;;;;;0.20;0.20;;;8.00;99.90;;;;;;5004302;28;20313;-90
2024/02/17 05:39:32;;;;;;;0.67;0.67;;;7.80;99.90;;;;;;4999236;28;20227;-89
2024/02/17 05:41:59;;;;;;;0.20;0.20;;;7.90;99.90;;;;;;4991590;28;21140;-89
2024/02/17 05:44:25;;;;;;;0.20;0.20;;;7.80;99.90;;;;;;4975975;28;20656;-90
2024/02/17 05:46:50;;;;;;;0.50;0.50;;;7.90;99.90;;;;;;4992514;28;20264;-90
2024/02/17 05:49:16;;;;;;;0.67;0.60;;;7.70;99.90;;;;;;5002966;28;20234;-89
2024/02/17 05:51:42;;;;;;;0.20;0.20;;;7.90;99.90;;;;;;5011162;28;20241;-90
2024/02/17 05:54:08;;;;;;;0.23;0.23;;;7.90;99.90;;;;;;4997591;28;20238;-89
2024/02/17 05:56:34;;;;;;;0.20;0.20;;;7.70;99.90;;;;;;5000356;28;20225;-90
2024/02/17 05:59:03;;;;;;;0.20;0.20;;;7.80;99.90;;;;;;5000213;28;20203;-90
2024/02/17 06:01:29;;;;;;;0.17;0.17;;;7.70;99.90;;;;;;5002755;28;20281;-90
2024/02/17 06:03:55;;;;;;;0.57;0.57;;;7.70;99.90;;;;;;4995405;28;20651;-90
2024/02/17 06:06:21;;;;;;;0.37;0.37;;;7.80;99.90;;;;;;4995659;28;20638;-90
2024/02/17 06:08:46;;;;;;;0.20;0.20;;;7.70;99.90;;;;;;5016632;28;20230;-89
2024/02/17 06:11:12;;;;;;;0.20;0.20;;;7.70;99.90;;;;;;5001527;28;20234;-89
2024/02/17 06:13:38;;;;;;;0.20;0.20;;;7.80;99.90;;;;;;5010717;28;20268;-89
2024/02/17 06:16:06;;;;;;;0.10;0.10;;;7.70;99.90;;;;;;5017811;28;20227;-89
2024/02/17 06:21:20;;;;;;;0.20;0.20;;;7.70;99.90;;;;;;5020535;28;20714;-90
2024/02/17 06:23:47;;;;;;;0.17;0.17;;;7.60;99.90;;;;;;5012041;28;20223;-90
2024/02/17 06:26:28;;;;;;;0.57;0.37;;;7.60;99.90;;;;;;5006952;28;20718;-89
2024/02/17 06:28:56;;;;;;;0.30;0.30;;;7.60;99.90;;;;;;4983328;28;20221;-89
2024/02/17 06:31:22;;;;;;;0.90;0.90;;;7.50;99.90;;;;;;4968757;28;20204;-90
2024/02/17 06:33:48;;;;;;;0.20;0.20;;;7.50;99.90;;;;;;5007501;28;20326;-90
2024/02/17 06:36:14;;;;;;;6.57;0.40;;;7.40;99.90;;;;;;4998560;28;20214;-89
2024/02/17 06:38:41;;;;;;;0.13;0.13;;;7.50;99.90;;;;;;5002473;28;20241;-90
2024/02/17 06:41:11;;;;;;;0.33;0.33;;;7.40;99.90;;;;;;5017192;28;20223;-89
2024/02/17 06:43:37;;;;;;;0.40;0.40;;;7.30;99.90;;;;;;5022391;28;20209;-90
2024/02/17 06:46:05;;;;;;;0.10;0.10;;;7.50;99.90;;;;;;5007275;28;20257;-89
2024/02/17 06:48:31;;;;;;;0.20;0.20;;;7.30;99.90;;;;;;5030378;28;20598;-89
2024/02/17 06:50:57;;;;;;;0.20;0.20;;;7.50;99.90;;;;;;4997307;28;20269;-89
2024/02/17 06:53:23;;;;;;;0.13;0.13;;;7.50;99.90;;;;;;4997686;28;20250;-89
2024/02/17 06:55:49;;;;;;;0.27;0.27;;;7.60;99.90;;;;;;4997114;28;20300;-89
2024/02/17 06:58:14;;;;;;;0.27;0.27;;;7.60;99.90;;;;;;4998963;28;20199;-90
2024/02/17 07:00:41;;;;;;;1.43;1.33;;;7.60;99.90;;;;;;5004282;28;20585;-91
2024/02/17 07:03:07;;;;;;;0.93;0.87;;;7.70;99.90;;;;;;5038501;28;20226;-90
2024/02/17 07:05:34;;;;;;;0.20;0.20;;;7.70;99.90;;;;;;5004932;28;20219;-91
2024/02/17 07:08:01;;;;;;;0.50;0.50;;;7.60;99.90;;;;;;5019557;28;20257;-89
2024/02/17 07:10:26;;;;;;;0.10;0.10;;;7.60;99.90;;;;;;5014581;28;20245;-90
2024/02/17 07:12:52;;;;;;;0.10;0.10;;;7.60;99.90;;;;;;5003567;28;20219;-90
2024/02/17 07:15:18;;;;;;;10.23;1.40;;;7.80;99.90;;;;;;5005483;28;20219;-90
2024/02/17 07:17:44;;;;;;;0.20;0.20;;;7.70;99.90;;;;;;5022273;28;20249;-91
2024/02/17 07:20:13;;;;;;;0.10;0.10;;;7.60;99.90;;;;;;4988909;28;20626;-89
2024/02/17 07:22:39;;;;;;;0.30;0.23;;;7.60;99.90;;;;;;5021642;28;20199;-91
2024/02/17 07:25:05;;;;;;;0.23;0.23;;;7.60;99.90;;;;;;5030747;28;20279;-91
2024/02/17 07:27:31;;;;;;;0.63;0.50;;;7.50;99.90;;;;;;5001685;28;20241;-90
2024/02/17 07:29:57;;;;;;;0.20;0.20;;;7.60;99.90;;;;;;5019451;28;20234;-90
2024/02/17 07:32:24;;;;;;;0.30;0.30;;;7.50;99.90;;;;;;5020311;28;20222;-90
2024/02/17 07:34:52;;;;;;;5.20;0.83;;;7.60;99.90;;;;;;5003969;28;20209;-89
2024/02/17 07:37:19;;;;;;;0.57;0.57;;;7.40;99.90;;;;;;5003776;28;20210;-89
2024/02/17 07:39:46;;;;;;;0.53;0.53;;;7.60;99.90;;;;;;5018636;28;20218;-89
2024/02/17 07:42:11;;;;;;;1.30;1.27;;;7.50;99.90;;;;;;5003153;28;20219;-89
2024/02/17 07:44:40;;;;;;;0.77;0.77;;;7.70;99.90;;;;;;5007052;28;20234;-89
2024/02/17 07:47:06;;;;;;;0.67;0.67;;;7.80;99.90;;;;;;4980283;28;20226;-89
2024/02/17 07:49:35;;;;;;;0.20;0.20;;;7.70;99.90;;;;;;4997588;28;20230;-91
2024/02/17 07:52:01;;;;;;;9.23;0.67;;;7.80;99.90;;;;;;4996359;28;20612;-90
2024/02/17 07:54:27;;;;;;;7.00;1.33;;;8.20;99.90;;;;;;5001438;28;20587;-92
2024/02/17 07:56:52;;;;;;;2.30;0.60;;;9.10;99.90;;;;;;5002439;28;20318;-90
2024/02/17 07:59:18;;;;;;;0.30;0.30;;;10.30;99.90;;;;;;5004071;28;20932;-90
2024/02/17 08:01:44;;;;;;;0.40;0.40;;;10.60;99.90;;;;;;5011479;28;20195;-89
2024/02/17 08:04:10;;;;;;;0.37;0.37;;;11.00;99.90;;;;;;5019719;28;20230;-89
2024/02/17 08:06:37;;;;;;;0.73;0.30;;;11.60;99.90;;;;;;5002544;28;20547;-90
2024/02/17 08:09:03;;;;;;;0.83;0.77;;;12.40;99.90;;;;;;5002070;28;20574;-89
2024/02/17 08:11:33;;;;;;;0.70;0.70;;;12.80;99.90;;;;;;5003137;28;20210;-91
2024/02/17 08:13:59;;;;;;;0.10;0.10;;;13.30;99.90;;;;;;5019961;28;20289;-90
2024/02/17 08:16:25;;;;;;;0.20;0.20;;;13.80;99.90;;;;;;5005903;28;20305;-91
2024/02/17 08:18:51;;;;;;;0.30;0.30;;;14.20;99.90;;;;;;4977346;28;20255;-89
2024/02/17 08:21:17;;;;;;;0.23;0.23;;;14.80;99.90;;;;;;4992094;28;20222;-90
2024/02/17 08:23:43;;;;;;;0.87;0.50;;;15.70;99.90;;;;;;4996130;28;20247;-89
2024/02/17 08:26:12;;;;;;;0.13;0.13;;;16.80;99.90;;;;;;5008980;28;20230;-89
2024/02/17 08:28:45;;;;;;;0.60;0.50;;;17.80;99.90;;;;;;4992193;28;20218;-90
2024/02/17 08:31:11;;;;;;;8.30;1.20;;;18.70;99.90;;;;;;4984904;28;20227;-89
2024/02/17 08:33:37;;;;;;;5.03;1.10;;;19.20;99.90;;;;;;5016945;28;20230;-90
2024/02/17 08:36:03;;;;;;;3.60;0.30;;;20.00;99.90;;;;;;5004511;28;20219;-89
2024/02/17 08:38:29;;;;;;;0.43;0.43;;;20.70;99.90;;;;;;4978998;28;20324;-91
2024/02/17 08:40:55;;;;;;;2.57;0.20;;;20.50;99.90;;;;;;4977359;28;20202;-89
2024/02/17 08:43:20;;;;;;;0.90;0.90;;;20.00;99.90;;;;;;5004043;28;20201;-89
2024/02/17 08:45:46;;;;;;;0.10;0.10;;;20.00;99.90;;;;;;5018056;28;20233;-89
2024/02/17 08:48:13;;;;;;;0.37;0.37;;;18.10;99.90;;;;;;5018074;28;20218;-90
2024/02/17 08:50:38;;;;;;;0.20;0.20;;;16.10;99.90;;;;;;4999487;28;20230;-90
2024/02/17 08:53:05;;;;;;;4.00;0.70;;;15.10;99.90;;;;;;5011041;28;20762;-90
2024/02/17 08:55:31;;;;;;;0.30;0.30;;;14.00;99.90;;;;;;5018618;28;20301;-89
2024/02/17 08:57:57;;;;;;;0.20;0.20;;;13.20;99.90;;;;;;5018336;28;20728;-89
2024/02/17 09:00:24;;;;;;;0.20;0.20;;;12.80;99.90;;;;;;5011701;28;20700;-90
2024/02/17 09:02:50;;;;;;;0.43;0.30;;;12.60;99.90;;;;;;4999705;28;21066;-90
2024/02/17 09:05:15;;;;;;;0.23;0.23;;;12.60;99.90;;;;;;5000535;28;20222;-89
2024/02/17 09:07:41;;;;;;;1.93;0.57;;;11.90;99.90;;;;;;4995580;28;20198;-89
2024/02/17 09:10:08;;;;;;;0.10;0.10;;;12.20;99.90;;;;;;4984936;28;20230;-89
2024/02/17 09:12:34;;;;;;;1.73;0.20;;;12.10;99.90;;;;;;4997466;28;21505;-89
2024/02/17 09:15:00;;;;;;;0.80;0.60;;;11.70;99.90;;;;;;4991858;28;20225;-89
2024/02/17 09:17:26;;;;;;;0.13;0.13;;;11.40;99.90;;;;;;4981160;28;20276;-88
2024/02/17 09:19:52;;;;;;;2.33;0.53;;;11.30;99.90;;;;;;4993923;28;20238;-89
2024/02/17 09:22:18;;;;;;;5.67;0.30;;;11.00;99.90;;;;;;5002472;28;20213;-89
2024/02/17 09:24:43;;;;;;;0.13;0.13;;;11.00;99.90;;;;;;5002948;28;20726;-90
2024/02/17 09:27:09;;;;;;;0.10;0.10;;;11.20;99.90;;;;;;5002021;28;20877;-89
2024/02/17 09:29:40;;;;;;;0.10;0.10;;;11.10;99.90;;;;;;4993581;28;20250;-89
2024/02/17 09:32:06;;;;;;;0.57;0.50;;;11.10;99.90;;;;;;5003253;28;20275;-89
2024/02/17 09:34:32;;;;;;;0.20;0.20;;;11.20;99.90;;;;;;5002174;28;20289;-90
2024/02/17 09:36:58;;;;;;;0.10;0.10;;;11.50;99.90;;;;;;5018210;28;20348;-89
2024/02/17 09:39:26;;;;;;;0.10;0.10;;;11.30;99.90;;;;;;5002292;28;20337;-89
2024/02/17 09:41:53;;;;;;;1.37;0.37;;;11.00;99.90;;;;;;5018285;28;20226;-89
2024/02/17 09:44:19;;;;;;;2.33;0.63;;;10.80;99.90;;;;;;5014747;28;20591;-90
2024/02/17 09:46:46;;;;;;;0.10;0.10;;;10.80;99.90;;;;;;5001350;28;20211;-89
2024/02/17 09:49:15;;;;;;;0.03;0.03;;;11.00;99.90;;;;;;4997758;28;20202;-90
2024/02/17 09:51:49;;;;;;;0.10;0.10;;;10.90;99.90;;;;;;4996445;28;20233;-90
2024/02/17 09:54:20;;;;;;;7.43;0.30;;;10.90;99.90;;;;;;5026573;28;20237;-89
2024/02/17 09:56:48;;;;;;;14.80;0.40;;;10.90;99.90;;;;;;5010571;28;20242;-90
2024/02/17 09:59:14;;;;;;;0.20;0.20;;;10.50;99.90;;;;;;5011153;28;20218;-89
2024/02/17 10:01:40;;;;;;;0.30;0.30;;;10.40;99.90;;;;;;5010168;28;20199;-89
2024/02/17 10:04:07;;;;;;;0.30;0.30;;;10.50;99.90;;;;;;5026044;28;20446;-89
2024/02/17 10:06:33;;;;;;;0.50;0.20;;;10.60;99.90;;;;;;5000714;28;20288;-90
2024/02/17 10:09:00;;;;;;;0.20;0.20;;;10.10;99.90;;;;;;5015126;28;20268;-90
2024/02/17 10:11:26;;;;;;;0.10;0.10;;;10.00;99.90;;;;;;5033262;28;20223;-90
2024/02/17 10:14:00;;;;;;;0.30;0.20;;;10.10;99.90;;;;;;5015985;28;20273;-89
2024/02/17 10:16:29;;;;;;;3.70;0.60;;;10.50;99.90;;;;;;5027207;28;20237;-90
2024/02/17 10:19:00;;;;;;;0.57;0.30;;;10.50;99.90;;;;;;5028478;28;20219;-90
2024/02/17 10:21:26;;;;;;;0.20;0.20;;;10.80;99.90;;;;;;5013934;28;20237;-90
2024/02/17 10:23:58;;;;;;;0.20;0.20;;;10.90;99.90;;;;;;5018992;28;20253;-89
2024/02/17 10:26:25;;;;;;;3.03;0.40;;;10.90;99.90;;;;;;5005625;28;20325;-90
2024/02/17 10:28:55;;;;;;;0.70;0.70;;;10.90;99.90;;;;;;5020800;28;20248;-89
2024/02/17 10:31:22;;;;;;;0.37;0.37;;;11.00;99.90;;;;;;4998063;28;20646;-90
2024/02/17 10:33:48;;;;;;;0.10;0.10;;;10.80;99.90;;;;;;4997845;28;20780;-89
2024/02/17 10:36:16;;;;;;;0.87;0.57;;;10.80;99.90;;;;;;5013273;28;20688;-91
2024/02/17 10:38:42;;;;;;;0.13;0.13;;;11.00;99.90;;;;;;4982525;28;20234;-89
2024/02/17 10:41:09;;;;;;;4.73;0.67;;;11.20;99.90;;;;;;5030335;28;20222;-90
2024/02/17 10:43:39;;;;;;;0.97;0.20;;;11.10;99.90;;;;;;5023905;28;20632;-89
2024/02/17 10:46:12;;;;;;;3.50;0.30;;;10.60;99.90;;;;;;5019669;28;20310;-90
2024/02/17 10:48:40;;;;;;;1.57;0.73;;;10.60;99.90;;;;;;5019417;28;20306;-90
2024/02/17 10:51:09;;;;;;;1.47;0.60;;;10.70;99.90;;;;;;5020858;28;20238;-90
2024/02/17 10:53:47;;;;;;;3.10;0.37;;;11.00;99.90;;;;;;5002800;28;20222;-89
2024/02/17 10:56:17;;;;;;;0.33;0.23;;;11.00;99.90;;;;;;5020070;28;20241;-89
2024/02/17 10:58:47;;;;;;;2.40;0.80;;;10.80;99.90;;;;;;5030721;28;20609;-90
2024/02/17 11:01:14;;;;;;;0.10;0.10;;;11.00;99.90;;;;;;4996720;28;20601;-89
2024/02/17 11:03:44;;;;;;;0.13;0.13;;;11.20;99.90;;;;;;5036193;28;20222;-90
2024/02/17 11:06:15;;;;;;;0.13;0.13;;;11.30;99.90;;;;;;5030467;28;20284;-88
2024/02/17 11:08:41;;;;;;;0.30;0.30;;;11.10;99.90;;;;;;5020836;28;20241;-90
2024/02/17 11:11:26;;;;;;;1.50;0.40;;;11.40;99.90;;;;;;5005657;28;20718;-89
2024/02/17 11:13:53;;;;;;;0.63;0.63;;;11.80;99.90;;;;;;4998910;28;20679;-90
2024/02/17 11:16:19;;;;;;;0.93;0.93;;;11.90;99.90;;;;;;5007047;28;20194;-90
2024/02/17 11:18:52;;;;;;;2.20;0.10;;;12.70;99.90;;;;;;5019767;28;20338;-89
2024/02/17 11:21:25;;;;;;;1.03;0.37;;;14.00;99.90;;;;;;5016022;28;20296;-89
2024/02/17 11:23:51;;;;;;;1.60;0.67;;;14.60;99.90;;;;;;5015764;28;20213;-90
2024/02/17 11:26:18;;;;;;;5.23;0.70;;;14.20;99.90;;;;;;4988855;28;20226;-89
2024/02/17 11:28:46;;;;;;;4.23;0.40;;;14.60;99.90;;;;;;5019421;28;20202;-89
2024/02/17 11:31:16;;;;;;;0.57;0.30;;;13.60;99.90;;;;;;4979034;28;20226;-91
2024/02/17 11:33:43;;;;;;;0.70;0.70;;;13.10;99.90;;;;;;4990854;28;20326;-89
2024/02/17 11:36:13;;;;;;;0.37;0.37;;;13.50;99.90;;;;;;5003641;28;20261;-89
2024/02/17 11:38:39;;;;;;;0.30;0.30;;;13.40;99.90;;;;;;4995882;28;20292;-88
2024/02/17 11:41:05;;;;;;;0.47;0.47;;;13.50;99.90;;;;;;5020337;28;20218;-89
2024/02/17 11:43:35;;;;;;;7.33;0.97;;;13.70;99.90;;;;;;5021160;28;20202;-89
2024/02/17 11:46:03;;;;;;;4.57;0.50;;;14.90;99.90;;;;;;5020019;28;20233;-90
2024/02/17 11:48:32;;;;;;;2.27;0.93;;;15.80;99.90;;;;;;5017282;28;20573;-90
2024/02/17 11:51:04;;;;;;;0.80;0.80;;;16.60;99.90;;;;;;5002798;28;20234;-89
2024/02/17 11:53:31;;;;;;;0.20;0.20;;;17.20;99.90;;;;;;5017853;28;20230;-88
2024/02/17 11:55:59;;;;;;;0.57;0.30;;;16.60;99.90;;;;;;5020978;28;20203;-89
2024/02/17 11:58:27;;;;;;;0.10;0.10;;;16.00;99.90;;;;;;5012816;28;20206;-89
2024/02/17 12:00:57;;;;;;;0.93;0.20;;;16.10;99.90;;;;;;5002039;28;20680;-90
2024/02/17 12:03:32;;;;;;;0.40;0.40;;;16.10;99.90;;;;;;5000787;28;20223;-90
2024/02/17 12:06:02;;;;;;;2.90;1.80;;;15.80;99.90;;;;;;4987688;28;20214;-89
2024/02/17 12:08:29;;;;;;;0.30;0.30;;;15.80;99.90;;;;;;5017421;28;20258;-90
2024/02/17 12:10:56;;;;;;;0.70;0.70;;;15.50;99.90;;;;;;5019823;28;20321;-88
2024/02/17 12:13:23;;;;;;;3.80;0.70;;;15.20;99.90;;;;;;5019749;28;20198;-89
2024/02/17 12:15:49;;;;;;;0.40;0.20;;;14.50;99.90;;;;;;5011035;28;20222;-89
2024/02/17 12:18:17;;;;;;;0.40;0.40;;;13.80;99.90;;;;;;5015632;28;20898;-89
2024/02/17 12:20:43;;;;;;;3.10;0.40;;;13.50;99.90;;;;;;5017031;28;20231;-89
2024/02/17 12:23:10;;;;;;;0.77;0.23;;;13.60;99.90;;;;;;5000092;28;20227;-89
2024/02/17 12:25:37;;;;;;;5.07;0.63;;;13.40;99.90;;;;;;5019641;28;20206;-89
2024/02/17 12:28:07;;;;;;;5.63;1.70;;;13.30;99.90;;;;;;5016397;28;20222;-89
2024/02/17 12:30:45;;;;;;;5.73;1.00;;;13.10;99.90;;;;;;5000810;28;20608;-90
2024/02/17 12:33:11;;;;;;;0.87;0.73;;;13.30;99.90;;;;;;5018052;28;20313;-92
2024/02/17 12:35:43;;;;;;;0.33;0.33;;;13.40;99.90;;;;;;5017180;28;20353;-90
2024/02/17 12:38:12;;;;;;;0.33;0.33;;;13.30;99.90;;;;;;5016722;28;20214;-89
2024/02/17 12:40:39;;;;;;;0.50;0.50;;;13.20;99.90;;;;;;5018316;28;20560;-89
2024/02/17 12:43:06;;;;;;;0.30;0.30;;;13.20;99.90;;;;;;5018010;28;20223;-91
2024/02/17 12:45:33;;;;;;;0.23;0.23;;;13.10;99.90;;;;;;5025833;28;21140;-90
2024/02/17 12:48:09;;;;;;;0.20;0.20;;;12.90;99.90;;;;;;5016550;28;20263;-89
2024/02/17 12:50:35;;;;;;;0.37;0.37;;;13.00;99.90;;;;;;5009460;28;20242;-89
2024/02/17 12:53:17;;;;;;;0.30;0.30;;;13.10;99.90;;;;;;5000935;28;20198;-92
2024/02/17 12:55:45;;;;;;;0.50;0.50;;;13.00;99.90;;;;;;5017319;28;20221;-91